sensor_id;sensor_type;location;lat;lon;timestamp;pressure;altitude;pressure_sealevel;temperature;humidity
11878;BME280;5998;42.676;23.268;2024-01-27T00:02:23;95273.69;;;3.88;100.00
11878;BME280;5998;42.676;23.268;2024-01-27T00:04:49;95255.13;;;3.83;100.00
11878;BME280;5998;42.676;23.268;2024-01-27T00:07:17;95264.06;;;3.92;100.00
11878;BME280;5998;42.676;23.268;2024-01-27T00:09:44;95268.66;;;3.87;100.00
11878;BME280;5998;42.676;23.268;2024-01-27T00:12:11;95266.50;;;3.89;100.00
11878;BME280;5998;42.676;23.268;2024-01-27T00:14:38;95273.06;;;3.96;100.00
11878;BME280;5998;42.676;23.268;2024-01-27T00:17:05;95268.66;;;4.05;100.00
11878;BME280;5998;42.676;23.268;2024-01-27T00:19:32;95258.88;;;4.01;100.00
11878;BME280;5998;42.676;23.268;2024-01-27T00:21:59;95257.22;;;4.05;100.00
11878;BME280;5998;42.676;23.268;2024-01-27T00:24:26;95255.56;;;4.09;100.00
11878;BME280;5998;42.676;23.268;2024-01-27T00:26:53;95254.41;;;4.15;100.00
11878;BME280;5998;42.676;23.268;2024-01-27T00:29:21;95265.28;;;4.00;100.00
11878;BME280;5998;42.676;23.268;2024-01-27T00:31:48;95258.59;;;4.02;100.00
11878;BME280;5998;42.676;23.268;2024-01-27T00:34:16;95249.28;;;4.00;100.00
11878;BME280;5998;42.676;23.268;2024-01-27T00:36:42;95246.47;;;4.10;100.00
11878;BME280;5998;42.676;23.268;2024-01-27T00:39:14;95251.25;;;4.13;100.00
11878;BME280;5998;42.676;23.268;2024-01-27T00:41:42;95252.97;;;4.04;100.00
11878;BME280;5998;42.676;23.268;2024-01-27T00:44:08;95254.94;;;4.17;100.00
11878;BME280;5998;42.676;23.268;2024-01-27T00:46:36;95255.00;;;4.12;100.00
11878;BME280;5998;42.676;23.268;2024-01-27T00:49:03;95262.19;;;4.11;100.00
11878;BME280;5998;42.676;23.268;2024-01-27T00:51:30;95257.28;;;4.18;100.00
11878;BME280;5998;42.676;23.268;2024-01-27T00:53:56;95257.75;;;4.26;100.00
11878;BME280;5998;42.676;23.268;2024-01-27T00:56:23;95264.63;;;4.27;100.00
11878;BME280;5998;42.676;23.268;2024-01-27T00:58:51;95249.13;;;4.29;100.00
11878;BME280;5998;42.676;23.268;2024-01-27T01:01:18;95251.53;;;4.30;100.00
11878;BME280;5998;42.676;23.268;2024-01-27T01:03:44;95254.47;;;4.29;100.00
11878;BME280;5998;42.676;23.268;2024-01-27T01:06:11;95253.19;;;4.26;100.00
11878;BME280;5998;42.676;23.268;2024-01-27T01:08:38;95248.00;;;4.35;100.00
11878;BME280;5998;42.676;23.268;2024-01-27T01:11:04;95247.72;;;4.36;100.00
11878;BME280;5998;42.676;23.268;2024-01-27T01:13:31;95245.13;;;4.31;100.00
11878;BME280;5998;42.676;23.268;2024-01-27T01:15:59;95248.63;;;4.27;100.00
11878;BME280;5998;42.676;23.268;2024-01-27T01:18:26;95250.50;;;4.26;100.00
11878;BME280;5998;42.676;23.268;2024-01-27T01:20:52;95257.03;;;4.20;100.00
11878;BME280;5998;42.676;23.268;2024-01-27T01:23:19;95248.31;;;4.14;100.00
11878;BME280;5998;42.676;23.268;2024-01-27T01:25:46;95248.41;;;4.23;100.00
11878;BME280;5998;42.676;23.268;2024-01-27T01:28:12;95237.56;;;4.20;100.00
11878;BME280;5998;42.676;23.268;2024-01-27T01:30:39;95241.03;;;4.20;100.00
11878;BME280;5998;42.676;23.268;2024-01-27T01:33:07;95232.81;;;4.16;100.00
11878;BME280;5998;42.676;23.268;2024-01-27T01:35:34;95229.66;;;4.14;100.00
11878;BME280;5998;42.676;23.268;2024-01-27T01:38:00;95231.22;;;4.15;100.00
11878;BME280;5998;42.676;23.268;2024-01-27T01:40:27;95222.06;;;4.22;100.00
11878;BME280;5998;42.676;23.268;2024-01-27T01:42:53;95222.66;;;4.18;100.00
11878;BME280;5998;42.676;23.268;2024-01-27T01:45:20;95215.53;;;4.14;100.00
11878;BME280;5998;42.676;23.268;2024-01-27T01:47:47;95211.97;;;4.18;100.00
11878;BME280;5998;42.676;23.268;2024-01-27T01:50:15;95200.66;;;4.27;100.00
11878;BME280;5998;42.676;23.268;2024-01-27T01:52:42;95206.34;;;4.39;100.00
11878;BME280;5998;42.676;23.268;2024-01-27T01:55:09;95218.44;;;4.50;100.00
11878;BME280;5998;42.676;23.268;2024-01-27T01:57:35;95217.28;;;4.56;100.00
11878;BME280;5998;42.676;23.268;2024-01-27T02:00:02;95208.53;;;4.69;100.00
11878;BME280;5998;42.676;23.268;2024-01-27T02:02:30;95210.44;;;4.82;100.00
11878;BME280;5998;42.676;23.268;2024-01-27T02:04:56;95206.88;;;4.87;100.00
11878;BME280;5998;42.676;23.268;2024-01-27T02:07:24;95200.84;;;4.95;100.00
11878;BME280;5998;42.676;23.268;2024-01-27T02:09:51;95189.81;;;5.01;100.00
11878;BME280;5998;42.676;23.268;2024-01-27T02:12:18;95190.09;;;5.00;100.00
11878;BME280;5998;42.676;23.268;2024-01-27T02:14:44;95187.81;;;5.07;100.00
11878;BME280;5998;42.676;23.268;2024-01-27T02:17:11;95173.47;;;5.03;100.00
11878;BME280;5998;42.676;23.268;2024-01-27T02:19:38;95174.59;;;5.02;100.00
11878;BME280;5998;42.676;23.268;2024-01-27T02:22:04;95178.44;;;5.09;100.00
11878;BME280;5998;42.676;23.268;2024-01-27T02:24:32;95183.88;;;5.18;100.00
11878;BME280;5998;42.676;23.268;2024-01-27T02:26:59;95180.84;;;5.24;100.00
11878;BME280;5998;42.676;23.268;2024-01-27T02:29:26;95161.63;;;5.22;100.00
11878;BME280;5998;42.676;23.268;2024-01-27T02:31:53;95172.22;;;5.41;100.00
11878;BME280;5998;42.676;23.268;2024-01-27T02:34:20;95168.53;;;5.51;100.00
11878;BME280;5998;42.676;23.268;2024-01-27T02:36:46;95170.84;;;5.44;100.00
11878;BME280;5998;42.676;23.268;2024-01-27T02:39:13;95167.47;;;5.38;100.00
11878;BME280;5998;42.676;23.268;2024-01-27T02:41:41;95172.22;;;5.41;100.00
11878;BME280;5998;42.676;23.268;2024-01-27T02:44:08;95163.00;;;5.33;100.00
11878;BME280;5998;42.676;23.268;2024-01-27T02:46:34;95164.59;;;5.34;100.00
11878;BME280;5998;42.676;23.268;2024-01-27T02:49:01;95165.41;;;5.35;100.00
11878;BME280;5998;42.676;23.268;2024-01-27T02:51:28;95161.34;;;5.38;100.00
11878;BME280;5998;42.676;23.268;2024-01-27T02:53:54;95167.56;;;5.33;100.00
11878;BME280;5998;42.676;23.268;2024-01-27T02:56:21;95169.34;;;5.38;100.00
11878;BME280;5998;42.676;23.268;2024-01-27T02:58:49;95176.94;;;5.44;100.00
11878;BME280;5998;42.676;23.268;2024-01-27T03:01:16;95175.06;;;5.45;100.00
11878;BME280;5998;42.676;23.268;2024-01-27T03:03:42;95178.44;;;5.50;100.00
11878;BME280;5998;42.676;23.268;2024-01-27T03:06:09;95184.88;;;5.49;100.00
11878;BME280;5998;42.676;23.268;2024-01-27T03:08:36;95191.19;;;5.53;100.00
11878;BME280;5998;42.676;23.268;2024-01-27T03:11:03;95196.25;;;5.55;100.00
11878;BME280;5998;42.676;23.268;2024-01-27T03:13:29;95195.34;;;5.59;100.00
11878;BME280;5998;42.676;23.268;2024-01-27T03:15:57;95200.78;;;5.54;100.00
11878;BME280;5998;42.676;23.268;2024-01-27T03:18:24;95207.69;;;5.42;100.00
11878;BME280;5998;42.676;23.268;2024-01-27T03:20:51;95197.53;;;5.44;100.00
11878;BME280;5998;42.676;23.268;2024-01-27T03:23:17;95199.78;;;5.36;100.00
11878;BME280;5998;42.676;23.268;2024-01-27T03:25:44;95177.94;;;5.21;100.00
11878;BME280;5998;42.676;23.268;2024-01-27T03:28:11;95198.50;;;5.20;100.00
11878;BME280;5998;42.676;23.268;2024-01-27T03:30:38;95204.63;;;5.07;100.00
11878;BME280;5998;42.676;23.268;2024-01-27T03:33:06;95199.19;;;4.99;100.00
11878;BME280;5998;42.676;23.268;2024-01-27T03:35:36;95189.78;;;4.88;100.00
11878;BME280;5998;42.676;23.268;2024-01-27T03:38:03;95182.97;;;4.95;100.00
11878;BME280;5998;42.676;23.268;2024-01-27T03:40:29;95176.25;;;4.98;100.00
11878;BME280;5998;42.676;23.268;2024-01-27T03:42:56;95179.59;;;4.90;100.00
11878;BME280;5998;42.676;23.268;2024-01-27T03:45:23;95178.31;;;5.01;100.00
11878;BME280;5998;42.676;23.268;2024-01-27T03:47:49;95179.41;;;4.86;100.00
11878;BME280;5998;42.676;23.268;2024-01-27T03:50:17;95171.66;;;4.71;100.00
11878;BME280;5998;42.676;23.268;2024-01-27T03:52:44;95168.97;;;4.57;100.00
11878;BME280;5998;42.676;23.268;2024-01-27T03:55:11;95169.38;;;4.64;100.00
11878;BME280;5998;42.676;23.268;2024-01-27T03:57:37;95175.19;;;4.53;100.00
11878;BME280;5998;42.676;23.268;2024-01-27T04:00:05;95167.66;;;4.41;100.00
11878;BME280;5998;42.676;23.268;2024-01-27T04:02:32;95169.97;;;4.29;100.00
11878;BME280;5998;42.676;23.268;2024-01-27T04:04:59;95177.47;;;4.27;100.00
11878;BME280;5998;42.676;23.268;2024-01-27T04:07:27;95189.06;;;4.17;100.00
11878;BME280;5998;42.676;23.268;2024-01-27T04:09:54;95162.50;;;4.12;100.00
11878;BME280;5998;42.676;23.268;2024-01-27T04:12:20;95173.03;;;4.04;100.00
11878;BME280;5998;42.676;23.268;2024-01-27T04:14:47;95166.47;;;3.96;100.00
11878;BME280;5998;42.676;23.268;2024-01-27T04:17:14;95165.28;;;3.89;100.00
11878;BME280;5998;42.676;23.268;2024-01-27T04:19:40;95164.25;;;3.85;100.00
11878;BME280;5998;42.676;23.268;2024-01-27T04:22:07;95164.63;;;3.78;100.00
11878;BME280;5998;42.676;23.268;2024-01-27T04:24:35;95164.84;;;3.82;100.00
11878;BME280;5998;42.676;23.268;2024-01-27T04:27:02;95173.25;;;3.70;100.00
11878;BME280;5998;42.676;23.268;2024-01-27T04:29:28;95170.75;;;3.79;100.00
11878;BME280;5998;42.676;23.268;2024-01-27T04:31:55;95165.84;;;3.86;100.00
11878;BME280;5998;42.676;23.268;2024-01-27T04:34:22;95168.22;;;3.87;100.00
11878;BME280;5998;42.676;23.268;2024-01-27T04:36:48;95180.59;;;3.97;100.00
11878;BME280;5998;42.676;23.268;2024-01-27T04:39:15;95173.63;;;4.01;100.00
11878;BME280;5998;42.676;23.268;2024-01-27T04:41:43;95173.47;;;4.11;100.00
11878;BME280;5998;42.676;23.268;2024-01-27T04:44:10;95166.84;;;4.08;100.00
11878;BME280;5998;42.676;23.268;2024-01-27T04:46:37;95169.50;;;4.08;100.00
11878;BME280;5998;42.676;23.268;2024-01-27T04:49:04;95166.53;;;4.10;100.00
11878;BME280;5998;42.676;23.268;2024-01-27T04:51:30;95157.09;;;4.17;100.00
11878;BME280;5998;42.676;23.268;2024-01-27T04:53:57;95171.28;;;4.13;100.00
11878;BME280;5998;42.676;23.268;2024-01-27T04:56:24;95174.53;;;4.10;100.00
11878;BME280;5998;42.676;23.268;2024-01-27T04:58:52;95171.06;;;4.28;100.00
11878;BME280;5998;42.676;23.268;2024-01-27T05:01:18;95180.53;;;4.34;100.00
11878;BME280;5998;42.676;23.268;2024-01-27T05:03:45;95190.72;;;4.32;100.00
11878;BME280;5998;42.676;23.268;2024-01-27T05:06:12;95183.44;;;4.38;100.00
11878;BME280;5998;42.676;23.268;2024-01-27T05:08:38;95190.34;;;4.39;100.00
11878;BME280;5998;42.676;23.268;2024-01-27T05:11:06;95176.84;;;4.49;100.00
11878;BME280;5998;42.676;23.268;2024-01-27T05:13:33;95191.59;;;4.60;100.00
11878;BME280;5998;42.676;23.268;2024-01-27T05:16:01;95195.97;;;4.69;100.00
11878;BME280;5998;42.676;23.268;2024-01-27T05:18:28;95194.19;;;4.65;100.00
11878;BME280;5998;42.676;23.268;2024-01-27T05:20:54;95182.09;;;4.54;100.00
11878;BME280;5998;42.676;23.268;2024-01-27T05:23:21;95193.31;;;4.69;100.00
11878;BME280;5998;42.676;23.268;2024-01-27T05:25:48;95193.91;;;4.66;100.00
11878;BME280;5998;42.676;23.268;2024-01-27T05:28:15;95202.88;;;4.70;100.00
11878;BME280;5998;42.676;23.268;2024-01-27T05:30:42;95192.53;;;4.69;100.00
11878;BME280;5998;42.676;23.268;2024-01-27T05:33:11;95194.09;;;4.70;100.00
11878;BME280;5998;42.676;23.268;2024-01-27T05:35:38;95194.72;;;4.81;100.00
11878;BME280;5998;42.676;23.268;2024-01-27T05:38:04;95207.44;;;4.84;100.00
11878;BME280;5998;42.676;23.268;2024-01-27T05:40:31;95204.50;;;4.85;100.00
11878;BME280;5998;42.676;23.268;2024-01-27T05:42:58;95210.63;;;4.86;100.00
11878;BME280;5998;42.676;23.268;2024-01-27T05:45:24;95208.78;;;5.00;100.00
11878;BME280;5998;42.676;23.268;2024-01-27T05:47:51;95214.63;;;5.02;100.00
11878;BME280;5998;42.676;23.268;2024-01-27T05:50:19;95211.25;;;5.10;100.00
11878;BME280;5998;42.676;23.268;2024-01-27T05:52:46;95209.06;;;4.98;100.00
11878;BME280;5998;42.676;23.268;2024-01-27T05:55:13;95212.84;;;5.11;100.00
11878;BME280;5998;42.676;23.268;2024-01-27T05:57:41;95224.50;;;5.15;100.00
11878;BME280;5998;42.676;23.268;2024-01-27T06:00:09;95218.28;;;5.19;100.00
11878;BME280;5998;42.676;23.268;2024-01-27T06:02:36;95216.31;;;5.25;100.00
11878;BME280;5998;42.676;23.268;2024-01-27T06:05:03;95217.09;;;5.25;100.00
11878;BME280;5998;42.676;23.268;2024-01-27T06:07:31;95232.53;;;5.28;100.00
11878;BME280;5998;42.676;23.268;2024-01-27T06:09:57;95233.31;;;5.29;100.00
11878;BME280;5998;42.676;23.268;2024-01-27T06:12:24;95225.00;;;5.17;100.00
11878;BME280;5998;42.676;23.268;2024-01-27T06:14:51;95236.69;;;5.21;100.00
11878;BME280;5998;42.676;23.268;2024-01-27T06:17:17;95241.94;;;5.26;100.00
11878;BME280;5998;42.676;23.268;2024-01-27T06:19:44;95237.06;;;5.28;100.00
11878;BME280;5998;42.676;23.268;2024-01-27T06:22:11;95237.75;;;5.20;100.00
11878;BME280;5998;42.676;23.268;2024-01-27T06:24:42;95227.19;;;5.28;100.00
11878;BME280;5998;42.676;23.268;2024-01-27T06:27:10;95257.84;;;5.31;100.00
11878;BME280;5998;42.676;23.268;2024-01-27T06:29:37;95244.41;;;5.36;100.00
11878;BME280;5998;42.676;23.268;2024-01-27T06:32:04;95268.63;;;5.40;100.00
11878;BME280;5998;42.676;23.268;2024-01-27T06:34:31;95276.53;;;5.45;100.00
11878;BME280;5998;42.676;23.268;2024-01-27T06:36:58;95278.16;;;5.46;100.00
11878;BME280;5998;42.676;23.268;2024-01-27T06:39:25;95269.81;;;5.47;100.00
11878;BME280;5998;42.676;23.268;2024-01-27T06:41:53;95283.00;;;5.44;100.00
11878;BME280;5998;42.676;23.268;2024-01-27T06:44:20;95288.13;;;5.40;100.00
11878;BME280;5998;42.676;23.268;2024-01-27T06:46:47;95274.97;;;5.44;100.00
11878;BME280;5998;42.676;23.268;2024-01-27T06:49:15;95278.72;;;5.43;100.00
11878;BME280;5998;42.676;23.268;2024-01-27T06:51:43;95289.63;;;5.46;100.00
11878;BME280;5998;42.676;23.268;2024-01-27T06:54:10;95268.63;;;5.26;100.00
11878;BME280;5998;42.676;23.268;2024-01-27T06:56:36;95255.47;;;5.16;100.00
11878;BME280;5998;42.676;23.268;2024-01-27T06:59:05;95282.19;;;5.29;100.00
11878;BME280;5998;42.676;23.268;2024-01-27T07:01:31;95293.97;;;5.42;100.00
11878;BME280;5998;42.676;23.268;2024-01-27T07:03:58;95286.44;;;5.44;100.00
11878;BME280;5998;42.676;23.268;2024-01-27T07:06:25;95289.81;;;5.50;100.00
11878;BME280;5998;42.676;23.268;2024-01-27T07:08:51;95270.81;;;5.51;100.00
11878;BME280;5998;42.676;23.268;2024-01-27T07:11:18;95282.22;;;5.57;100.00
11878;BME280;5998;42.676;23.268;2024-01-27T07:13:45;95282.78;;;5.54;100.00
11878;BME280;5998;42.676;23.268;2024-01-27T07:16:13;95297.75;;;5.55;100.00
11878;BME280;5998;42.676;23.268;2024-01-27T07:18:39;95274.97;;;5.44;100.00
11878;BME280;5998;42.676;23.268;2024-01-27T07:21:06;95290.22;;;5.43;100.00
11878;BME280;5998;42.676;23.268;2024-01-27T07:23:33;95303.44;;;5.34;100.00
11878;BME280;5998;42.676;23.268;2024-01-27T07:26:00;95301.38;;;5.45;100.00
11878;BME280;5998;42.676;23.268;2024-01-27T07:28:28;95298.09;;;5.34;100.00
11878;BME280;5998;42.676;23.268;2024-01-27T07:30:55;95320.88;;;5.46;100.00
11878;BME280;5998;42.676;23.268;2024-01-27T07:33:23;95323.22;;;5.33;100.00
11878;BME280;5998;42.676;23.268;2024-01-27T07:35:50;95351.97;;;5.23;100.00
11878;BME280;5998;42.676;23.268;2024-01-27T07:38:17;95377.16;;;5.17;100.00
11878;BME280;5998;42.676;23.268;2024-01-27T07:40:44;95380.22;;;5.10;100.00
11878;BME280;5998;42.676;23.268;2024-01-27T07:43:10;95410.94;;;5.08;100.00
11878;BME280;5998;42.676;23.268;2024-01-27T07:45:37;95400.94;;;5.00;100.00
11878;BME280;5998;42.676;23.268;2024-01-27T07:48:04;95417.13;;;5.03;100.00
11878;BME280;5998;42.676;23.268;2024-01-27T07:50:33;95411.81;;;5.03;100.00
11878;BME280;5998;42.676;23.268;2024-01-27T07:53:00;95408.34;;;5.03;100.00
11878;BME280;5998;42.676;23.268;2024-01-27T07:55:27;95406.75;;;5.02;100.00
11878;BME280;5998;42.676;23.268;2024-01-27T07:57:54;95402.41;;;5.06;100.00
11878;BME280;5998;42.676;23.268;2024-01-27T08:00:20;95404.19;;;4.97;100.00
11878;BME280;5998;42.676;23.268;2024-01-27T08:02:47;95411.31;;;5.01;100.00
11878;BME280;5998;42.676;23.268;2024-01-27T08:05:14;95422.34;;;4.95;100.00
11878;BME280;5998;42.676;23.268;2024-01-27T08:07:42;95417.28;;;4.93;100.00
11878;BME280;5998;42.676;23.268;2024-01-27T08:10:09;95419.31;;;4.83;100.00
11878;BME280;5998;42.676;23.268;2024-01-27T08:12:36;95426.44;;;4.87;100.00
11878;BME280;5998;42.676;23.268;2024-01-27T08:15:04;95431.94;;;4.96;100.00
11878;BME280;5998;42.676;23.268;2024-01-27T08:17:31;95429.50;;;4.99;100.00
11878;BME280;5998;42.676;23.268;2024-01-27T08:19:58;95397.38;;;5.04;100.00
11878;BME280;5998;42.676;23.268;2024-01-27T08:22:24;95367.72;;;5.06;100.00
11878;BME280;5998;42.676;23.268;2024-01-27T08:24:52;95395.56;;;5.18;100.00
11878;BME280;5998;42.676;23.268;2024-01-27T08:27:19;95399.66;;;5.29;100.00
11878;BME280;5998;42.676;23.268;2024-01-27T08:29:46;95416.88;;;5.37;100.00
11878;BME280;5998;42.676;23.268;2024-01-27T08:32:12;95412.34;;;5.38;100.00
11878;BME280;5998;42.676;23.268;2024-01-27T08:34:39;95385.06;;;5.41;100.00
11878;BME280;5998;42.676;23.268;2024-01-27T08:37:14;95362.44;;;5.52;100.00
11878;BME280;5998;42.676;23.268;2024-01-27T08:39:41;95400.09;;;5.50;100.00
11878;BME280;5998;42.676;23.268;2024-01-27T08:42:09;95412.88;;;5.53;100.00
11878;BME280;5998;42.676;23.268;2024-01-27T08:44:36;95403.56;;;5.51;100.00
11878;BME280;5998;42.676;23.268;2024-01-27T08:47:03;95401.03;;;5.59;100.00
11878;BME280;5998;42.676;23.268;2024-01-27T08:49:30;95409.78;;;5.78;100.00
11878;BME280;5998;42.676;23.268;2024-01-27T08:51:56;95411.00;;;5.86;100.00
11878;BME280;5998;42.676;23.268;2024-01-27T08:54:23;95410.47;;;5.84;100.00
11878;BME280;5998;42.676;23.268;2024-01-27T08:56:50;95408.59;;;5.71;100.00
11878;BME280;5998;42.676;23.268;2024-01-27T08:59:18;95386.69;;;5.69;100.00
11878;BME280;5998;42.676;23.268;2024-01-27T09:01:45;95403.47;;;5.88;100.00
11878;BME280;5998;42.676;23.268;2024-01-27T09:04:12;95391.59;;;5.94;100.00
11878;BME280;5998;42.676;23.268;2024-01-27T09:06:38;95403.09;;;5.94;100.00
11878;BME280;5998;42.676;23.268;2024-01-27T09:09:05;95410.22;;;5.99;100.00
11878;BME280;5998;42.676;23.268;2024-01-27T09:11:33;95422.59;;;5.95;100.00
11878;BME280;5998;42.676;23.268;2024-01-27T09:14:00;95412.00;;;5.90;100.00
11878;BME280;5998;42.676;23.268;2024-01-27T09:16:28;95407.75;;;6.03;100.00
11878;BME280;5998;42.676;23.268;2024-01-27T09:18:55;95404.16;;;5.93;100.00
11878;BME280;5998;42.676;23.268;2024-01-27T09:21:21;95406.34;;;5.91;100.00
11878;BME280;5998;42.676;23.268;2024-01-27T09:23:53;95393.16;;;5.81;100.00
11878;BME280;5998;42.676;23.268;2024-01-27T09:26:20;95411.38;;;5.79;100.00
11878;BME280;5998;42.676;23.268;2024-01-27T09:28:48;95398.78;;;5.80;100.00
11878;BME280;5998;42.676;23.268;2024-01-27T09:31:20;95390.44;;;6.00;100.00
11878;BME280;5998;42.676;23.268;2024-01-27T09:33:49;95379.13;;;6.03;100.00
11878;BME280;5998;42.676;23.268;2024-01-27T09:36:16;95370.03;;;6.18;100.00
11878;BME280;5998;42.676;23.268;2024-01-27T09:38:43;95368.56;;;5.98;100.00
11878;BME280;5998;42.676;23.268;2024-01-27T09:41:10;95368.44;;;6.03;100.00
11878;BME280;5998;42.676;23.268;2024-01-27T09:43:41;95369.03;;;6.00;100.00
11878;BME280;5998;42.676;23.268;2024-01-27T09:46:08;95368.44;;;6.03;100.00
11878;BME280;5998;42.676;23.268;2024-01-27T09:48:35;95380.13;;;5.93;100.00
11878;BME280;5998;42.676;23.268;2024-01-27T09:51:04;95373.31;;;5.87;100.00
11878;BME280;5998;42.676;23.268;2024-01-27T09:53:31;95385.94;;;5.82;100.00
11878;BME280;5998;42.676;23.268;2024-01-27T09:55:59;95403.91;;;5.63;100.00
11878;BME280;5998;42.676;23.268;2024-01-27T09:58:28;95412.00;;;5.58;100.00
11878;BME280;5998;42.676;23.268;2024-01-27T10:00:56;95412.47;;;5.46;100.00
11878;BME280;5998;42.676;23.268;2024-01-27T10:03:24;95431.25;;;5.41;100.00
11878;BME280;5998;42.676;23.268;2024-01-27T10:05:52;95416.66;;;5.33;100.00
11878;BME280;5998;42.676;23.268;2024-01-27T10:08:21;95434.06;;;5.31;100.00
11878;BME280;5998;42.676;23.268;2024-01-27T10:10:49;95431.69;;;5.29;100.00
11878;BME280;5998;42.676;23.268;2024-01-27T10:13:17;95435.69;;;5.13;100.00
11878;BME280;5998;42.676;23.268;2024-01-27T10:15:44;95430.28;;;5.00;100.00
11878;BME280;5998;42.676;23.268;2024-01-27T10:18:11;95441.59;;;5.10;100.00
11878;BME280;5998;42.676;23.268;2024-01-27T10:20:40;95444.94;;;5.02;100.00
11878;BME280;5998;42.676;23.268;2024-01-27T10:23:11;95435.81;;;5.03;100.00
11878;BME280;5998;42.676;23.268;2024-01-27T10:25:39;95447.53;;;5.07;100.00
11878;BME280;5998;42.676;23.268;2024-01-27T10:28:07;95459.69;;;4.95;100.00
11878;BME280;5998;42.676;23.268;2024-01-27T10:30:34;95455.88;;;4.82;100.00
11878;BME280;5998;42.676;23.268;2024-01-27T10:33:01;95471.38;;;4.80;100.00
11878;BME280;5998;42.676;23.268;2024-01-27T10:35:28;95470.75;;;4.88;100.00
11878;BME280;5998;42.676;23.268;2024-01-27T10:37:56;95467.56;;;4.86;100.00
11878;BME280;5998;42.676;23.268;2024-01-27T10:40:23;95468.16;;;4.83;100.00
11878;BME280;5998;42.676;23.268;2024-01-27T10:43:00;95472.44;;;4.79;100.00
11878;BME280;5998;42.676;23.268;2024-01-27T10:45:31;95457.59;;;4.73;100.00
11878;BME280;5998;42.676;23.268;2024-01-27T10:48:02;95471.94;;;4.77;100.00
11878;BME280;5998;42.676;23.268;2024-01-27T10:50:29;95478.00;;;4.83;100.00
11878;BME280;5998;42.676;23.268;2024-01-27T10:52:57;95483.34;;;4.83;100.00
11878;BME280;5998;42.676;23.268;2024-01-27T10:55:24;95458.47;;;4.68;100.00
11878;BME280;5998;42.676;23.268;2024-01-27T10:57:55;95476.56;;;4.71;100.00
11878;BME280;5998;42.676;23.268;2024-01-27T11:00:23;95466.13;;;4.75;100.00
11878;BME280;5998;42.676;23.268;2024-01-27T11:02:52;95468.97;;;4.78;100.00
11878;BME280;5998;42.676;23.268;2024-01-27T11:05:21;95468.06;;;4.69;100.00
11878;BME280;5998;42.676;23.268;2024-01-27T11:07:50;95474.03;;;4.61;100.00
11878;BME280;5998;42.676;23.268;2024-01-27T11:10:18;95472.06;;;4.67;100.00
11878;BME280;5998;42.676;23.268;2024-01-27T11:12:45;95485.63;;;4.70;100.00
11878;BME280;5998;42.676;23.268;2024-01-27T11:15:15;95471.28;;;4.66;100.00
11878;BME280;5998;42.676;23.268;2024-01-27T11:17:42;95466.28;;;4.60;100.00
11878;BME280;5998;42.676;23.268;2024-01-27T11:20:11;95469.84;;;4.74;100.00
11878;BME280;5998;42.676;23.268;2024-01-27T11:22:38;95473.03;;;4.76;100.00
11878;BME280;5998;42.676;23.268;2024-01-27T11:25:08;95472.59;;;4.69;100.00
11878;BME280;5998;42.676;23.268;2024-01-27T11:27:41;95463.38;;;4.80;100.00
11878;BME280;5998;42.676;23.268;2024-01-27T11:30:26;95482.97;;;4.70;100.00
11878;BME280;5998;42.676;23.268;2024-01-27T11:32:55;95479.63;;;4.60;100.00
11878;BME280;5998;42.676;23.268;2024-01-27T11:35:22;95486.91;;;4.54;100.00
11878;BME280;5998;42.676;23.268;2024-01-27T11:37:49;95486.63;;;4.56;100.00
11878;BME280;5998;42.676;23.268;2024-01-27T11:40:16;95489.22;;;4.61;100.00
11878;BME280;5998;42.676;23.268;2024-01-27T11:42:42;95490.13;;;4.51;100.00
11878;BME280;5998;42.676;23.268;2024-01-27T11:45:09;95489.63;;;4.49;100.00
11878;BME280;5998;42.676;23.268;2024-01-27T11:47:37;95489.69;;;4.44;100.00
11878;BME280;5998;42.676;23.268;2024-01-27T11:50:05;95493.75;;;4.60;100.00
11878;BME280;5998;42.676;23.268;2024-01-27T11:52:33;95473.63;;;4.49;100.00
11878;BME280;5998;42.676;23.268;2024-01-27T11:55:00;95488.06;;;4.67;100.00
11878;BME280;5998;42.676;23.268;2024-01-27T11:57:27;95512.59;;;4.69;100.00
11878;BME280;5998;42.676;23.268;2024-01-27T11:59:54;95516.00;;;4.74;100.00
11878;BME280;5998;42.676;23.268;2024-01-27T12:02:21;95503.06;;;4.63;100.00
11878;BME280;5998;42.676;23.268;2024-01-27T12:04:49;95507.28;;;4.69;100.00
11878;BME280;5998;42.676;23.268;2024-01-27T12:07:16;95501.88;;;4.74;100.00
11878;BME280;5998;42.676;23.268;2024-01-27T12:09:45;95525.25;;;4.82;100.00
11878;BME280;5998;42.676;23.268;2024-01-27T12:12:13;95509.47;;;4.86;100.00
11878;BME280;5998;42.676;23.268;2024-01-27T12:14:40;95491.72;;;4.95;100.00
11878;BME280;5998;42.676;23.268;2024-01-27T12:17:09;95544.75;;;5.01;100.00
11878;BME280;5998;42.676;23.268;2024-01-27T12:19:36;95516.34;;;5.10;100.00
11878;BME280;5998;42.676;23.268;2024-01-27T12:22:22;95520.72;;;5.20;100.00
11878;BME280;5998;42.676;23.268;2024-01-27T12:24:51;95507.69;;;5.18;100.00
11878;BME280;5998;42.676;23.268;2024-01-27T12:27:18;95512.00;;;5.14;100.00
11878;BME280;5998;42.676;23.268;2024-01-27T12:29:47;95517.50;;;5.23;100.00
11878;BME280;5998;42.676;23.268;2024-01-27T12:32:14;95509.13;;;5.29;100.00
11878;BME280;5998;42.676;23.268;2024-01-27T12:34:41;95513.81;;;5.38;100.00
11878;BME280;5998;42.676;23.268;2024-01-27T12:37:11;95499.88;;;5.22;100.00
11878;BME280;5998;42.676;23.268;2024-01-27T12:39:42;95505.22;;;5.41;100.00
11878;BME280;5998;42.676;23.268;2024-01-27T12:42:09;95516.13;;;5.44;100.00
11878;BME280;5998;42.676;23.268;2024-01-27T12:44:36;95514.03;;;5.60;100.00
11878;BME280;5998;42.676;23.268;2024-01-27T12:47:03;95508.97;;;5.58;100.00
11878;BME280;5998;42.676;23.268;2024-01-27T12:49:30;95515.09;;;5.59;100.00
11878;BME280;5998;42.676;23.268;2024-01-27T12:51:57;95530.75;;;5.47;100.00
11878;BME280;5998;42.676;23.268;2024-01-27T12:54:25;95522.97;;;5.31;100.00
11878;BME280;5998;42.676;23.268;2024-01-27T12:56:52;95528.63;;;5.49;100.00
11878;BME280;5998;42.676;23.268;2024-01-27T12:59:19;95532.59;;;5.51;100.00
11878;BME280;5998;42.676;23.268;2024-01-27T13:01:46;95528.16;;;5.42;100.00